Judra+1barza — DB9520 — position and weather

sailwx.info

Track history (hours):
 
Tides and Currents Weather Stations Pressure Air Temp Water Temp Dewpoint Dewpoint Depression Visibility Wind Speed Wind Dir Waves Ship Positions

Judra+1barza

Last reported at 2017-Dec-22 11:32 UTC. Time now 2018-Apr-26 11:45 UTC.
Position N 44°40' E 020°54'.
Warning: this ship's position is months out of date.

Length 102 m; draft 2 m.

Type: Other ship. MMSI: 211480870.

Date/timePositionNaut miles runAvg speedWind from/ knotsBaromVisibWave heightAir tempDewpointWater temp
2017-Dec-22 11:32N 44°40' E 020°54'0 0.0
2017-Dec-22 11:29N 44°40' E 020°54'25 2.2
2017-Dec-21 23:46N 44°47' E 021°28'1 4.6
2017-Dec-21 23:28N 44°46' E 021°30'2 4.7
2017-Dec-21 23:00N 44°46' E 021°33'2 4.2
2017-Dec-21 22:31N 44°45' E 021°35'2 4.8
2017-Dec-21 22:01N 44°43' E 021°37'2 4.2
2017-Dec-21 21:31N 44°42' E 021°39'2 4.7
2017-Dec-21 21:00N 44°40' E 021°42'14 3.7
2017-Dec-21 17:18N 44°37' E 022°00'1 4.2
2017-Dec-21 17:01N 44°36' E 022°01'2 4.7
2017-Dec-21 16:31N 44°33' E 022°02'2 4.8
2017-Dec-21 16:01N 44°32' E 022°04'2 4.8
2017-Dec-21 15:31N 44°29' E 022°06'3 5.1
2017-Dec-21 15:01N 44°28' E 022°09'2 4.5
2017-Dec-21 14:31N 44°30' E 022°12'11 5.0
2017-Dec-21 12:16N 44°40' E 022°19'1 5.6
2017-Dec-21 12:00N 44°40' E 022°21'3 5.5
2017-Dec-21 11:27N 44°42' E 022°24'2 5.4
2017-Dec-21 11:00N 44°43' E 022°27'3 5.9
2017-Dec-21 10:31N 44°41' E 022°31'1 1.8
2017-Dec-21 10:01N 44°40' E 022°31'0 0.0
2017-Dec-21 09:30N 44°40' E 022°31'0 0.4
2017-Dec-21 09:01N 44°40' E 022°32'0 0.9
2017-Dec-21 08:30N 44°40' E 022°32'2 3.7
2017-Dec-21 08:01N 44°38' E 022°34'2 3.6
2017-Dec-21 07:31N 44°37' E 022°36'2 3.7
2017-Dec-21 07:01N 44°37' E 022°39'2 4.4
2017-Dec-21 06:30N 44°37' E 022°42'2 4.4
2017-Dec-21 06:00N 44°35' E 022°44'2 4.7
2017-Dec-21 05:30N 44°33' E 022°46'2 4.0
2017-Dec-21 05:00N 44°32' E 022°44'2 4.5
2017-Dec-21 04:30N 44°31' E 022°41'3 5.4
2017-Dec-21 04:00N 44°33' E 022°37'0 0.8
2017-Dec-21 03:30N 44°33' E 022°37'0 0.0
2017-Dec-21 03:00N 44°33' E 022°37'0 0.0
2017-Dec-21 02:30N 44°33' E 022°37'0 0.0
2017-Dec-21 02:00N 44°33' E 022°37'0 0.0
2017-Dec-21 01:30N 44°33' E 022°37'0 0.0
2017-Dec-21 01:00N 44°33' E 022°37'0 0.0
2017-Dec-21 00:30N 44°33' E 022°37'0 0.0
2017-Dec-21 00:00N 44°33' E 022°37'0 0.0
2017-Dec-20 23:30N 44°33' E 022°37'0 0.0
2017-Dec-20 23:00N 44°33' E 022°37'0 0.0
2017-Dec-20 22:30N 44°33' E 022°37'0 0.0
2017-Dec-20 22:00N 44°33' E 022°37'0 0.0
2017-Dec-20 21:30N 44°33' E 022°37'0 0.0
2017-Dec-20 21:00N 44°33' E 022°37'1 1.1
2017-Dec-20 20:30N 44°33' E 022°36'2 4.4
2017-Dec-20 20:00N 44°32' E 022°34'3 5.1
2017-Dec-20 19:30N 44°29' E 022°33'2 4.7
2017-Dec-20 19:00N 44°28' E 022°30'2 3.7
2017-Dec-20 18:30N 44°28' E 022°27'2 4.6
2017-Dec-20 18:00N 44°26' E 022°29'2 4.8
2017-Dec-20 17:31N 44°24' E 022°30'3 5.1
2017-Dec-20 17:01N 44°21' E 022°31'3 5.1
2017-Dec-20 16:31N 44°19' E 022°33'1 1.2
2017-Dec-20 16:00N 44°19' E 022°34'2 3.9
2017-Dec-20 15:30N 44°18' E 022°36'2 4.3
2017-Dec-20 15:00N 44°17' E 022°39'2 3.1
2017-Dec-20 14:31N 44°17' E 022°37'0 0.0
2017-Dec-20 14:01N 44°17' E 022°37'1 2.4
2017-Dec-20 13:31N 44°17' E 022°39'1 2.4
2017-Dec-20 13:01N 44°17' E 022°37'1 1.7
2017-Dec-20 12:31N 44°17' E 022°38'1 2.2
2017-Dec-20 12:01N 44°17' E 022°40'2 3.9
2017-Dec-20 11:30N 44°16' E 022°41'2 4.1
2017-Dec-20 11:00N 44°14' E 022°40'2 3.4
2017-Dec-20 10:30N 44°12' E 022°42'2 4.0
2017-Dec-20 10:00N 44°12' E 022°45'2 3.9
2017-Dec-20 09:30N 44°10' E 022°47'2 4.6
2017-Dec-20 09:00N 44°09' E 022°49'2 4.5
2017-Dec-20 08:30N 44°08' E 022°52'2 4.7
2017-Dec-20 08:00N 44°06' E 022°55'2 4.0
2017-Dec-20 07:30N 44°06' E 022°57'2 4.3
2017-Dec-20 07:00N 44°06' E 023°00'2 4.4
2017-Dec-20 06:30N 44°04' E 023°03'2 4.2
2017-Dec-20 06:00N 44°02' E 023°02'6 4.1
2017-Dec-20 04:32N 43°60' E 022°54'1 4.3
2017-Dec-20 04:22N 43°59' E 022°53'1 3.8
2017-Dec-20 04:00N 43°58' E 022°53'2 4.5
2017-Dec-20 03:30N 43°56' E 022°52'2 4.1
2017-Dec-20 03:00N 43°54' E 022°51'0 0.0
2017-Dec-20 02:30N 43°54' E 022°51'0 0.0
2017-Dec-20 02:01N 43°54' E 022°51'0 0.0
2017-Dec-20 01:30N 43°54' E 022°51'0 0.0
2017-Dec-20 01:00N 43°54' E 022°51'0 0.0
2017-Dec-20 00:30N 43°54' E 022°51'0 0.0
2017-Dec-20 00:01N 43°54' E 022°51'0 0.0
2017-Dec-19 23:30N 43°54' E 022°51'0 0.0
2017-Dec-19 23:00N 43°54' E 022°51'0 0.0
2017-Dec-19 22:30N 43°54' E 022°51'0 0.0
2017-Dec-19 22:00N 43°54' E 022°51'0 0.0
2017-Dec-19 21:30N 43°54' E 022°51'0 0.0
2017-Dec-19 21:01N 43°54' E 022°51'0 0.0
2017-Dec-19 20:31N 43°54' E 022°51'0 0.0
2017-Dec-19 20:01N 43°54' E 022°51'0 0.0
2017-Dec-19 19:30N 43°54' E 022°51'1 2.6
2017-Dec-19 19:00N 43°53' E 022°50'2 4.5
2017-Dec-19 18:30N 43°51' E 022°51'  
Track history (hours):
 
Tides and Currents Weather Stations Pressure Air Temp Water Temp Dewpoint Dewpoint Depression Visibility Wind Speed Wind Dir Waves Ship Positions

Judra+1barza

Last reported at 2017-Dec-22 11:32 UTC. Time now 2018-Apr-26 11:45 UTC.
Position N 44°40' E 020°54'.
Warning: this ship's position is months out of date.

Length 102 m; draft 2 m.

Type: Other ship. MMSI: 211480870.

Date/timePositionNaut miles runAvg speedWind from/ knotsBaromVisibWave heightAir tempDewpointWater temp
2017-Dec-22 11:32N 44°40' E 020°54'0 0.0
2017-Dec-22 11:29N 44°40' E 020°54'25 2.2
2017-Dec-21 23:46N 44°47' E 021°28'1 4.6
2017-Dec-21 23:28N 44°46' E 021°30'2 4.7
2017-Dec-21 23:00N 44°46' E 021°33'2 4.2
2017-Dec-21 22:31N 44°45' E 021°35'2 4.8
2017-Dec-21 22:01N 44°43' E 021°37'2 4.2
2017-Dec-21 21:31N 44°42' E 021°39'2 4.7
2017-Dec-21 21:00N 44°40' E 021°42'14 3.7
2017-Dec-21 17:18N 44°37' E 022°00'1 4.2
2017-Dec-21 17:01N 44°36' E 022°01'2 4.7
2017-Dec-21 16:31N 44°33' E 022°02'2 4.8
2017-Dec-21 16:01N 44°32' E 022°04'2 4.8
2017-Dec-21 15:31N 44°29' E 022°06'3 5.1
2017-Dec-21 15:01N 44°28' E 022°09'2 4.5
2017-Dec-21 14:31N 44°30' E 022°12'11 5.0
2017-Dec-21 12:16N 44°40' E 022°19'1 5.6
2017-Dec-21 12:00N 44°40' E 022°21'3 5.5
2017-Dec-21 11:27N 44°42' E 022°24'2 5.4
2017-Dec-21 11:00N 44°43' E 022°27'3 5.9
2017-Dec-21 10:31N 44°41' E 022°31'1 1.8
2017-Dec-21 10:01N 44°40' E 022°31'0 0.0
2017-Dec-21 09:30N 44°40' E 022°31'0 0.4
2017-Dec-21 09:01N 44°40' E 022°32'0 0.9
2017-Dec-21 08:30N 44°40' E 022°32'2 3.7
2017-Dec-21 08:01N 44°38' E 022°34'2 3.6
2017-Dec-21 07:31N 44°37' E 022°36'2 3.7
2017-Dec-21 07:01N 44°37' E 022°39'2 4.4
2017-Dec-21 06:30N 44°37' E 022°42'2 4.4
2017-Dec-21 06:00N 44°35' E 022°44'2 4.7
2017-Dec-21 05:30N 44°33' E 022°46'2 4.0
2017-Dec-21 05:00N 44°32' E 022°44'2 4.5
2017-Dec-21 04:30N 44°31' E 022°41'3 5.4
2017-Dec-21 04:00N 44°33' E 022°37'0 0.8
2017-Dec-21 03:30N 44°33' E 022°37'0 0.0
2017-Dec-21 03:00N 44°33' E 022°37'0 0.0
2017-Dec-21 02:30N 44°33' E 022°37'0 0.0
2017-Dec-21 02:00N 44°33' E 022°37'0 0.0
2017-Dec-21 01:30N 44°33' E 022°37'0 0.0
2017-Dec-21 01:00N 44°33' E 022°37'0 0.0
2017-Dec-21 00:30N 44°33' E 022°37'0 0.0
2017-Dec-21 00:00N 44°33' E 022°37'0 0.0
2017-Dec-20 23:30N 44°33' E 022°37'0 0.0
2017-Dec-20 23:00N 44°33' E 022°37'0 0.0
2017-Dec-20 22:30N 44°33' E 022°37'0 0.0
2017-Dec-20 22:00N 44°33' E 022°37'0 0.0
2017-Dec-20 21:30N 44°33' E 022°37'0 0.0
2017-Dec-20 21:00N 44°33' E 022°37'1 1.1
2017-Dec-20 20:30N 44°33' E 022°36'2 4.4
2017-Dec-20 20:00N 44°32' E 022°34'3 5.1
2017-Dec-20 19:30N 44°29' E 022°33'2 4.7
2017-Dec-20 19:00N 44°28' E 022°30'2 3.7
2017-Dec-20 18:30N 44°28' E 022°27'2 4.6
2017-Dec-20 18:00N 44°26' E 022°29'2 4.8
2017-Dec-20 17:31N 44°24' E 022°30'3 5.1
2017-Dec-20 17:01N 44°21' E 022°31'3 5.1
2017-Dec-20 16:31N 44°19' E 022°33'1 1.2
2017-Dec-20 16:00N 44°19' E 022°34'2 3.9
2017-Dec-20 15:30N 44°18' E 022°36'2 4.3
2017-Dec-20 15:00N 44°17' E 022°39'2 3.1
2017-Dec-20 14:31N 44°17' E 022°37'0 0.0
2017-Dec-20 14:01N 44°17' E 022°37'1 2.4
2017-Dec-20 13:31N 44°17' E 022°39'1 2.4
2017-Dec-20 13:01N 44°17' E 022°37'1 1.7
2017-Dec-20 12:31N 44°17' E 022°38'1 2.2
2017-Dec-20 12:01N 44°17' E 022°40'2 3.9
2017-Dec-20 11:30N 44°16' E 022°41'2 4.1
2017-Dec-20 11:00N 44°14' E 022°40'2 3.4
2017-Dec-20 10:30N 44°12' E 022°42'2 4.0
2017-Dec-20 10:00N 44°12' E 022°45'2 3.9
2017-Dec-20 09:30N 44°10' E 022°47'2 4.6
2017-Dec-20 09:00N 44°09' E 022°49'2 4.5
2017-Dec-20 08:30N 44°08' E 022°52'2 4.7
2017-Dec-20 08:00N 44°06' E 022°55'2 4.0
2017-Dec-20 07:30N 44°06' E 022°57'2 4.3
2017-Dec-20 07:00N 44°06' E 023°00'2 4.4
2017-Dec-20 06:30N 44°04' E 023°03'2 4.2
2017-Dec-20 06:00N 44°02' E 023°02'6 4.1
2017-Dec-20 04:32N 43°60' E 022°54'1 4.3
2017-Dec-20 04:22N 43°59' E 022°53'1 3.8
2017-Dec-20 04:00N 43°58' E 022°53'2 4.5
2017-Dec-20 03:30N 43°56' E 022°52'2 4.1
2017-Dec-20 03:00N 43°54' E 022°51'0 0.0
2017-Dec-20 02:30N 43°54' E 022°51'0 0.0
2017-Dec-20 02:01N 43°54' E 022°51'0 0.0
2017-Dec-20 01:30N 43°54' E 022°51'0 0.0
2017-Dec-20 01:00N 43°54' E 022°51'0 0.0
2017-Dec-20 00:30N 43°54' E 022°51'0 0.0
2017-Dec-20 00:01N 43°54' E 022°51'0 0.0
2017-Dec-19 23:30N 43°54' E 022°51'0 0.0
2017-Dec-19 23:00N 43°54' E 022°51'0 0.0
2017-Dec-19 22:30N 43°54' E 022°51'0 0.0
2017-Dec-19 22:00N 43°54' E 022°51'0 0.0
2017-Dec-19 21:30N 43°54' E 022°51'0 0.0
2017-Dec-19 21:01N 43°54' E 022°51'0 0.0
2017-Dec-19 20:31N 43°54' E 022°51'0 0.0
2017-Dec-19 20:01N 43°54' E 022°51'0 0.0
2017-Dec-19 19:30N 43°54' E 022°51'1 2.6
2017-Dec-19 19:00N 43°53' E 022°50'2 4.5
2017-Dec-19 18:30N 43°51' E 022°51'  

Dump ship's entire track history